createdAt,value
2022-10-16T00:00:13.364Z,93.17
2022-10-16T00:03:02.109Z,91.32
2022-10-16T00:05:31.094Z,90.72
2022-10-16T00:07:59.830Z,91.50
2022-10-16T00:10:29.722Z,92.06
2022-10-16T00:12:58.447Z,92.19
2022-10-16T00:15:27.100Z,93.31
2022-10-16T00:17:55.895Z,93.23
2022-10-16T00:20:24.512Z,90.85
2022-10-16T00:23:11.902Z,89.09
2022-10-16T00:25:41.820Z,88.91
2022-10-16T00:28:10.749Z,87.95
2022-10-16T00:30:40.912Z,86.28
2022-10-16T00:33:09.681Z,88.10
2022-10-16T00:35:38.174Z,86.55
2022-10-16T00:38:06.890Z,85.59
2022-10-16T00:40:35.448Z,86.68
2022-10-16T00:43:11.628Z,88.37
2022-10-16T00:45:40.269Z,85.88
2022-10-16T00:48:16.274Z,85.68
2022-10-16T00:50:44.891Z,86.15
2022-10-16T00:53:14.224Z,87.49
2022-10-16T00:55:42.809Z,88.42
2022-10-16T00:58:13.741Z,89.60
2022-10-16T01:00:42.597Z,90.73
2022-10-16T01:03:28.623Z,90.73
2022-10-16T01:06:15.512Z,89.12
2022-10-16T01:09:02.887Z,89.93
2022-10-16T01:11:37.969Z,90.23
2022-10-16T01:14:20.723Z,89.91
2022-10-16T01:16:57.425Z,88.79
2022-10-16T01:19:50.192Z,87.89
2022-10-16T01:22:22.551Z,87.56
2022-10-16T01:24:54.424Z,87.29
2022-10-16T01:27:30.859Z,85.21
2022-10-16T01:30:10.886Z,86.67
2022-10-16T01:32:44.018Z,87.00
2022-10-16T01:35:22.339Z,88.32
2022-10-16T01:37:58.157Z,91.05
2022-10-16T01:40:30.379Z,92.77
2022-10-16T01:43:06.637Z,89.46
2022-10-16T01:45:38.251Z,91.12
2022-10-16T01:48:10.697Z,92.50
2022-10-16T01:50:44.732Z,92.02
2022-10-16T01:53:17.366Z,89.78
2022-10-16T01:55:51.429Z,90.78
2022-10-16T01:58:21.254Z,91.18
2022-10-16T02:00:50.732Z,90.94
2022-10-16T02:03:22.755Z,90.27
2022-10-16T02:05:56.098Z,91.03
2022-10-16T02:08:29.241Z,90.32
2022-10-16T02:10:58.647Z,90.04
2022-10-16T02:13:35.273Z,90.46
2022-10-16T02:16:04.244Z,91.18
2022-10-16T02:18:33.151Z,91.41
2022-10-16T02:21:15.114Z,91.36
2022-10-16T02:23:53.523Z,92.47
2022-10-16T02:26:32.168Z,93.03
2022-10-16T02:29:06.835Z,93.95
2022-10-16T02:31:43.341Z,94.29
2022-10-16T02:34:15.237Z,93.75
2022-10-16T02:36:46.093Z,93.07
2022-10-16T02:39:16.404Z,93.62
2022-10-16T02:41:45.528Z,93.97
2022-10-16T02:44:15.403Z,95.39
2022-10-16T02:46:44.102Z,94.44
2022-10-16T02:49:12.653Z,94.83
2022-10-16T02:51:41.386Z,93.30
2022-10-16T02:54:10.035Z,93.11
2022-10-16T02:56:38.825Z,92.41
2022-10-16T02:59:07.502Z,92.05
2022-10-16T03:01:37.797Z,91.64
2022-10-16T03:04:06.490Z,92.82
2022-10-16T03:06:35.286Z,94.50
2022-10-16T03:09:03.916Z,95.42
2022-10-16T03:11:32.632Z,93.62
2022-10-16T03:14:01.265Z,92.17
2022-10-16T03:16:30.201Z,93.03
2022-10-16T03:19:00.067Z,94.50
2022-10-16T03:21:28.831Z,93.90
2022-10-16T03:23:57.404Z,93.97
2022-10-16T03:26:26.129Z,93.88
2022-10-16T03:28:54.660Z,93.96
2022-10-16T03:31:23.676Z,92.27
2022-10-16T03:33:52.313Z,93.99
2022-10-16T03:36:22.525Z,92.29
2022-10-16T03:38:51.188Z,93.22
2022-10-16T03:41:19.937Z,93.86
2022-10-16T03:43:48.446Z,93.83
2022-10-16T03:46:17.184Z,92.23
2022-10-16T03:48:45.890Z,92.58
2022-10-16T03:51:14.651Z,94.50
2022-10-16T03:53:44.629Z,93.48
2022-10-16T03:56:13.447Z,94.13
2022-10-16T03:58:41.979Z,94.56
2022-10-16T04:01:10.810Z,94.88
2022-10-16T04:03:39.382Z,94.78
2022-10-16T04:06:08.113Z,94.65
2022-10-16T04:08:37.659Z,95.56
2022-10-16T04:11:08.022Z,95.82
2022-10-16T04:13:36.552Z,95.39
2022-10-16T04:16:05.918Z,95.46
2022-10-16T04:18:34.524Z,94.75
2022-10-16T04:21:05.937Z,94.39
2022-10-16T04:23:35.167Z,94.84
2022-10-16T04:26:04.176Z,94.92
2022-10-16T04:28:34.112Z,95.11
2022-10-16T04:31:05.983Z,94.48
2022-10-16T04:33:35.097Z,95.25
2022-10-16T04:36:06.214Z,95.64
2022-10-16T04:38:34.787Z,96.10
2022-10-16T04:41:03.463Z,96.14
2022-10-16T04:43:33.325Z,96.11
2022-10-16T04:46:02.824Z,96.74
2022-10-16T04:48:31.348Z,96.70
2022-10-16T04:51:00.150Z,96.57
2022-10-16T04:53:28.766Z,97.09
2022-10-16T04:55:58.189Z,96.82
2022-10-16T04:58:26.786Z,97.52
2022-10-16T05:00:57.108Z,97.24
2022-10-16T05:03:25.728Z,97.57
2022-10-16T05:05:54.511Z,97.68
2022-10-16T05:08:23.170Z,97.36
2022-10-16T05:10:51.914Z,97.65
2022-10-16T05:13:20.451Z,98.35
2022-10-16T05:15:50.164Z,98.78
2022-10-16T05:18:20.179Z,99.16
2022-10-16T05:20:49.015Z,98.91
2022-10-16T05:23:17.624Z,99.34
2022-10-16T05:25:54.554Z,99.52
2022-10-16T05:28:23.928Z,99.45
2022-10-16T05:30:53.101Z,99.63
2022-10-16T05:33:26.370Z,99.86
2022-10-16T05:35:55.157Z,100.00
2022-10-16T05:38:23.972Z,100.00
2022-10-16T05:40:55.638Z,99.96
2022-10-16T05:43:24.646Z,100.00
2022-10-16T05:45:57.963Z,99.51
2022-10-16T05:48:28.693Z,100.00
2022-10-16T05:51:01.247Z,99.82
2022-10-16T05:53:31.423Z,99.75
2022-10-16T05:56:01.050Z,99.59
2022-10-16T05:58:33.861Z,99.09
2022-10-16T06:01:06.469Z,99.41
2022-10-16T06:03:37.206Z,98.97
2022-10-16T06:06:12.477Z,99.34
2022-10-16T06:08:42.261Z,99.05
2022-10-16T06:11:15.420Z,98.83
2022-10-16T06:13:44.420Z,98.16
2022-10-16T06:16:14.357Z,97.32
2022-10-16T06:18:44.267Z,96.90
2022-10-16T06:21:18.277Z,96.22
2022-10-16T06:23:47.928Z,95.37
2022-10-16T06:26:19.536Z,94.98
2022-10-16T06:28:49.248Z,94.73
2022-10-16T06:31:19.438Z,93.48
2022-10-16T06:33:53.584Z,92.85
2022-10-16T06:36:23.173Z,92.35
2022-10-16T06:38:52.211Z,91.70
2022-10-16T06:41:24.263Z,92.06
2022-10-16T06:43:54.188Z,91.54
2022-10-16T06:46:25.674Z,90.76
2022-10-16T06:48:55.804Z,90.06
2022-10-16T06:51:26.719Z,90.67
2022-10-16T06:54:03.261Z,90.77
2022-10-16T06:56:34.720Z,89.93
2022-10-16T06:59:04.705Z,89.19
2022-10-16T07:01:34.601Z,88.46
2022-10-16T07:04:04.749Z,89.00
2022-10-16T07:06:35.983Z,89.03
2022-10-16T07:09:07.788Z,88.46
2022-10-16T07:11:38.595Z,89.73
2022-10-16T07:14:11.162Z,89.87
2022-10-16T07:16:39.934Z,89.82
2022-10-16T07:19:12.778Z,90.50
2022-10-16T07:21:41.624Z,91.16
2022-10-16T07:24:15.871Z,91.27
2022-10-16T07:26:47.123Z,90.81
2022-10-16T07:29:18.575Z,91.42
2022-10-16T07:31:48.168Z,91.47
2022-10-16T07:34:22.561Z,90.28
2022-10-16T07:36:52.199Z,88.97
2022-10-16T07:39:21.104Z,88.70
2022-10-16T07:41:49.848Z,88.54
2022-10-16T07:44:18.508Z,84.70
2022-10-16T07:46:47.762Z,84.80
2022-10-16T07:49:17.630Z,86.09
2022-10-16T07:51:46.385Z,82.82
2022-10-16T07:54:15.040Z,83.24
2022-10-16T07:56:44.128Z,81.74
2022-10-16T07:59:13.136Z,80.85
2022-10-16T08:01:43.148Z,79.92
2022-10-16T08:04:12.431Z,79.29
2022-10-16T08:06:43.518Z,78.86
2022-10-16T08:09:12.216Z,78.09
2022-10-16T08:11:40.900Z,76.97
2022-10-16T08:14:09.546Z,76.00
2022-10-16T08:16:38.437Z,75.61
2022-10-16T08:19:06.994Z,75.24
2022-10-16T08:21:35.722Z,76.06
2022-10-16T08:24:05.759Z,74.90
2022-10-16T08:26:34.511Z,74.21
2022-10-16T08:29:03.138Z,73.87
2022-10-16T08:31:32.031Z,68.22
2022-10-16T08:34:00.583Z,71.64
2022-10-16T08:36:29.583Z,70.57
2022-10-16T08:38:58.156Z,72.41
2022-10-16T08:42:18.267Z,71.79
2022-10-16T08:45:23.746Z,73.14
2022-10-16T08:48:05.328Z,71.73
2022-10-16T08:50:40.351Z,70.40
2022-10-16T08:53:17.099Z,72.16
2022-10-16T08:55:51.464Z,71.48
2022-10-16T08:58:24.576Z,71.65
2022-10-16T09:00:58.035Z,71.31
2022-10-16T09:03:48.498Z,71.18
2022-10-16T09:06:34.259Z,70.47
2022-10-16T09:09:28.561Z,70.09
2022-10-16T09:12:07.065Z,70.49
2022-10-16T09:14:54.873Z,68.32
2022-10-16T09:17:40.006Z,68.32
2022-10-16T09:20:29.969Z,65.45
2022-10-16T09:23:16.424Z,64.70
2022-10-16T09:25:49.788Z,64.46
2022-10-16T09:28:19.911Z,64.77
2022-10-16T09:30:51.238Z,65.10
2022-10-16T09:33:25.680Z,64.88
2022-10-16T09:35:59.457Z,63.84
2022-10-16T09:38:30.850Z,61.64
2022-10-16T09:41:03.449Z,64.15
2022-10-16T09:43:41.269Z,65.50
2022-10-16T09:46:26.846Z,63.35
2022-10-16T09:48:59.155Z,64.87
2022-10-16T09:51:31.475Z,63.02
2022-10-16T09:54:03.138Z,64.70
2022-10-16T09:56:34.540Z,65.52
2022-10-16T09:59:12.544Z,64.78
2022-10-16T10:01:48.306Z,64.27
2022-10-16T10:04:17.367Z,62.66
2022-10-16T10:06:49.827Z,60.59
2022-10-16T10:09:22.614Z,62.84
2022-10-16T10:11:55.924Z,65.90
2022-10-16T10:14:34.485Z,65.61
2022-10-16T10:17:17.777Z,63.14
2022-10-16T10:19:54.136Z,64.83
2022-10-16T10:22:34.660Z,66.85
2022-10-16T10:25:24.641Z,65.22
2022-10-16T10:28:16.439Z,63.97
2022-10-16T10:30:58.223Z,62.82
2022-10-16T10:33:40.680Z,62.79
2022-10-16T10:36:32.340Z,62.60
2022-10-16T10:39:07.339Z,62.80
2022-10-16T10:42:24.399Z,64.02
2022-10-16T10:45:13.765Z,64.83
2022-10-16T10:47:55.683Z,63.76
2022-10-16T10:50:37.622Z,63.00
2022-10-16T10:53:23.852Z,65.44
2022-10-16T10:56:03.077Z,65.38
2022-10-16T10:58:57.236Z,65.33
2022-10-16T11:01:41.177Z,66.19
2022-10-16T11:04:53.254Z,65.49
2022-10-16T11:07:30.473Z,64.71
2022-10-16T11:10:07.171Z,64.92
2022-10-16T11:12:43.970Z,62.41
2022-10-16T11:15:21.359Z,63.34
2022-10-16T11:17:59.115Z,64.38
2022-10-16T11:20:32.043Z,66.68
2022-10-16T11:23:12.799Z,65.04
2022-10-16T11:25:42.309Z,66.36
2022-10-16T11:28:18.059Z,65.35
2022-10-16T11:30:52.179Z,66.33
2022-10-16T11:33:37.358Z,65.53
2022-10-16T11:36:16.290Z,67.46
2022-10-16T11:38:56.349Z,66.81
2022-10-16T11:41:34.975Z,65.60
2022-10-16T11:44:23.281Z,65.67
2022-10-16T11:47:28.528Z,64.65
2022-10-16T11:49:59.543Z,65.98
2022-10-16T11:52:39.543Z,66.12
2022-10-16T11:55:19.489Z,65.13
2022-10-16T11:57:53.573Z,65.97
2022-10-16T12:00:26.687Z,65.79
2022-10-16T12:03:05.695Z,65.05
2022-10-16T12:06:00.849Z,63.91
2022-10-16T12:08:30.461Z,63.43
2022-10-16T12:11:12.216Z,63.19
2022-10-16T12:13:44.374Z,63.10
2022-10-16T12:16:25.343Z,64.42
2022-10-16T12:19:17.140Z,62.82
2022-10-16T12:21:48.060Z,61.95
2022-10-16T12:24:32.236Z,65.49
2022-10-16T12:27:03.321Z,64.17
2022-10-16T12:29:39.260Z,64.73
2022-10-16T12:32:47.509Z,66.84
2022-10-16T12:35:25.046Z,66.62
2022-10-16T12:37:55.407Z,65.76
2022-10-16T12:40:33.075Z,66.02
2022-10-16T12:43:28.900Z,64.46
2022-10-16T12:46:05.232Z,62.97
2022-10-16T12:48:48.308Z,64.72
2022-10-16T12:51:27.761Z,63.54
2022-10-16T12:54:03.933Z,67.18
2022-10-16T12:56:48.886Z,68.01
2022-10-16T12:59:37.437Z,68.45
2022-10-16T13:02:42.428Z,68.34
2022-10-16T13:05:40.731Z,69.73
2022-10-16T13:08:35.833Z,70.52
2022-10-16T13:11:18.555Z,70.37
2022-10-16T13:14:22.487Z,71.16
2022-10-16T13:17:08.333Z,72.13
2022-10-16T13:19:49.739Z,71.34
2022-10-16T13:22:31.400Z,72.68
2022-10-16T13:25:20.461Z,72.94
2022-10-16T13:27:57.454Z,73.52
2022-10-16T13:30:30.731Z,72.60
2022-10-16T13:33:06.457Z,72.87
2022-10-16T13:35:37.118Z,74.44
2022-10-16T13:38:20.557Z,72.68
2022-10-16T13:40:58.777Z,75.22
2022-10-16T13:43:33.633Z,75.36
2022-10-16T13:46:05.565Z,76.14
2022-10-16T13:48:36.784Z,74.28
2022-10-16T13:51:14.240Z,75.85
2022-10-16T13:53:44.353Z,72.86
2022-10-16T13:56:15.847Z,74.89
2022-10-16T13:58:45.759Z,76.03
2022-10-16T14:01:22.187Z,75.58
2022-10-16T14:03:53.838Z,75.40
2022-10-16T14:06:24.351Z,76.12
2022-10-16T14:09:01.184Z,74.74
2022-10-16T14:11:30.845Z,74.44
2022-10-16T14:13:59.941Z,75.72
2022-10-16T14:16:33.272Z,77.08
2022-10-16T14:19:07.844Z,77.66
2022-10-16T14:21:37.004Z,78.04
2022-10-16T14:24:14.203Z,80.69
2022-10-16T14:26:51.116Z,81.11
2022-10-16T14:29:22.019Z,82.48
2022-10-16T14:31:59.213Z,83.30
2022-10-16T14:34:34.177Z,83.02
2022-10-16T14:37:10.693Z,84.29
2022-10-16T14:39:39.610Z,84.35
2022-10-16T14:42:20.654Z,84.80
2022-10-16T14:44:51.802Z,84.19
2022-10-16T14:47:26.403Z,82.13
2022-10-16T14:49:59.738Z,83.36
2022-10-16T14:52:28.303Z,85.46
2022-10-16T14:54:57.536Z,85.54
2022-10-16T14:57:33.562Z,82.81
2022-10-16T15:00:02.534Z,83.32
2022-10-16T15:02:34.032Z,82.42
2022-10-16T15:05:17.432Z,80.96
2022-10-16T15:07:46.984Z,80.54
2022-10-16T15:10:16.875Z,81.47
2022-10-16T15:12:45.993Z,82.54
2022-10-16T15:15:33.180Z,85.17
2022-10-16T15:18:02.334Z,85.85
2022-10-16T15:20:36.483Z,87.25
2022-10-16T15:23:08.494Z,85.36
2022-10-16T15:25:43.213Z,87.13
2022-10-16T15:28:13.899Z,87.74
2022-10-16T15:30:43.161Z,87.08
2022-10-16T15:33:16.418Z,86.15
2022-10-16T15:35:49.794Z,86.90
2022-10-16T15:38:20.501Z,86.71
2022-10-16T15:40:50.299Z,84.11
2022-10-16T15:43:19.705Z,84.09
2022-10-16T15:46:03.397Z,83.62
2022-10-16T15:48:32.755Z,86.08
2022-10-16T15:51:07.823Z,86.11
2022-10-16T15:53:37.144Z,86.12
2022-10-16T15:56:07.170Z,88.54
2022-10-16T15:58:35.770Z,89.76
2022-10-16T16:01:05.584Z,89.75
2022-10-16T16:03:36.799Z,89.73
2022-10-16T16:06:12.871Z,90.68
2022-10-16T16:08:41.923Z,91.56
2022-10-16T16:11:13.997Z,91.49
2022-10-16T16:13:43.316Z,91.65
2022-10-16T16:16:15.184Z,92.33
2022-10-16T16:18:45.038Z,90.82
2022-10-16T16:21:15.363Z,90.84
2022-10-16T16:23:44.024Z,91.35
2022-10-16T16:26:16.370Z,92.62
2022-10-16T16:28:45.607Z,93.31
2022-10-16T16:31:14.372Z,93.49
2022-10-16T16:33:42.886Z,93.78
2022-10-16T16:36:15.779Z,94.93
2022-10-16T16:38:46.372Z,94.84
2022-10-16T16:41:16.772Z,95.35
2022-10-16T16:43:45.922Z,96.40
2022-10-16T16:46:15.432Z,95.95
2022-10-16T16:48:44.906Z,96.79
2022-10-16T16:51:17.258Z,97.80
2022-10-16T16:53:50.026Z,98.26
2022-10-16T16:56:20.360Z,98.64
2022-10-16T16:58:50.727Z,98.67
2022-10-16T17:01:21.526Z,99.61
2022-10-16T17:03:53.119Z,100.00
2022-10-16T17:06:24.796Z,100.00
2022-10-16T17:08:55.655Z,100.00
2022-10-16T17:11:28.014Z,100.00
2022-10-16T17:13:59.332Z,100.00
2022-10-16T17:16:32.460Z,100.00
2022-10-16T17:19:03.303Z,100.00
2022-10-16T17:21:33.079Z,100.00
2022-10-16T17:24:03.820Z,100.00
2022-10-16T17:26:33.020Z,100.00
2022-10-16T17:29:03.446Z,100.00
2022-10-16T17:31:35.311Z,100.00
2022-10-16T17:34:07.352Z,100.00
2022-10-16T17:36:39.608Z,100.00
2022-10-16T17:39:13.211Z,100.00
2022-10-16T17:41:42.119Z,100.00
2022-10-16T17:44:13.472Z,100.00
2022-10-16T17:46:42.283Z,100.00
2022-10-16T17:49:11.575Z,100.00
2022-10-16T17:51:40.536Z,100.00
2022-10-16T17:54:11.745Z,100.00
2022-10-16T17:56:40.519Z,100.00
2022-10-16T17:59:09.058Z,100.00
2022-10-16T18:01:41.622Z,100.00
2022-10-16T18:04:13.187Z,100.00
2022-10-16T18:06:44.190Z,100.00
2022-10-16T18:09:19.147Z,100.00
2022-10-16T18:11:49.278Z,100.00
2022-10-16T18:14:19.418Z,100.00
2022-10-16T18:16:48.213Z,100.00
2022-10-16T18:19:16.744Z,100.00
2022-10-16T18:21:46.788Z,100.00
2022-10-16T18:24:17.974Z,100.00
2022-10-16T18:26:47.025Z,100.00
2022-10-16T18:29:15.593Z,100.00
2022-10-16T18:31:44.343Z,100.00
2022-10-16T18:34:13.149Z,100.00
2022-10-16T18:36:43.069Z,100.00
2022-10-16T18:39:13.239Z,100.00
2022-10-16T18:41:45.791Z,100.00
2022-10-16T18:44:15.050Z,100.00
2022-10-16T18:46:44.002Z,100.00
2022-10-16T18:49:12.514Z,100.00
2022-10-16T18:51:44.126Z,100.00
2022-10-16T18:54:13.858Z,100.00
2022-10-16T18:56:43.929Z,100.00
2022-10-16T18:59:12.462Z,100.00
2022-10-16T19:01:43.486Z,100.00
2022-10-16T19:04:14.968Z,100.00
2022-10-16T19:06:46.599Z,100.00
2022-10-16T19:09:17.480Z,100.00
2022-10-16T19:11:47.892Z,100.00
2022-10-16T19:14:18.707Z,100.00
2022-10-16T19:16:47.837Z,100.00
2022-10-16T19:19:19.254Z,100.00
2022-10-16T19:21:51.220Z,100.00
2022-10-16T19:24:19.791Z,100.00
2022-10-16T19:26:49.910Z,100.00
2022-10-16T19:29:18.417Z,100.00
2022-10-16T19:31:47.171Z,100.00
2022-10-16T19:34:15.740Z,100.00
2022-10-16T19:36:44.500Z,100.00
2022-10-16T19:39:17.276Z,100.00
2022-10-16T19:41:47.431Z,100.00
2022-10-16T19:44:19.156Z,100.00
2022-10-16T19:46:49.449Z,100.00
2022-10-16T19:49:21.775Z,100.00
2022-10-16T19:51:52.250Z,100.00
2022-10-16T19:54:21.370Z,100.00
2022-10-16T19:56:50.120Z,100.00
2022-10-16T19:59:20.380Z,100.00
2022-10-16T20:01:49.757Z,100.00
2022-10-16T20:04:18.739Z,100.00
2022-10-16T20:06:47.660Z,100.00
2022-10-16T20:09:16.397Z,100.00
2022-10-16T20:11:45.167Z,100.00
2022-10-16T20:14:13.796Z,100.00
2022-10-16T20:16:43.908Z,100.00
2022-10-16T20:19:12.506Z,100.00
2022-10-16T20:21:41.367Z,100.00
2022-10-16T20:24:09.928Z,100.00
2022-10-16T20:26:39.279Z,100.00
2022-10-16T20:29:08.987Z,100.00
2022-10-16T20:31:38.525Z,100.00
2022-10-16T20:34:12.400Z,100.00
2022-10-16T20:36:45.333Z,100.00
2022-10-16T20:39:14.778Z,100.00
2022-10-16T20:41:43.599Z,100.00
2022-10-16T20:44:12.181Z,100.00
2022-10-16T20:46:41.703Z,100.00
2022-10-16T20:49:27.886Z,100.00
2022-10-16T20:51:57.556Z,100.00
2022-10-16T20:54:26.081Z,100.00
2022-10-16T20:56:54.832Z,100.00
2022-10-16T20:59:23.386Z,100.00
2022-10-16T21:01:52.211Z,100.00
2022-10-16T21:04:22.188Z,100.00
2022-10-16T21:06:50.925Z,100.00
2022-10-16T21:09:19.454Z,100.00
2022-10-16T21:11:48.303Z,100.00
2022-10-16T21:14:16.833Z,100.00
2022-10-16T21:16:45.562Z,100.00
2022-10-16T21:19:14.140Z,100.00
2022-10-16T21:21:44.223Z,100.00
2022-10-16T21:24:16.566Z,100.00
2022-10-16T21:26:46.180Z,100.00
2022-10-16T21:29:15.140Z,100.00
2022-10-16T21:31:44.569Z,100.00
2022-10-16T21:34:13.127Z,100.00
2022-10-16T21:36:44.259Z,100.00
2022-10-16T21:39:16.720Z,100.00
2022-10-16T21:41:48.110Z,100.00
2022-10-16T21:44:17.886Z,100.00
2022-10-16T21:46:47.900Z,100.00
2022-10-16T21:49:20.008Z,100.00
2022-10-16T21:51:51.817Z,100.00
2022-10-16T21:54:23.590Z,100.00
2022-10-16T21:56:53.011Z,100.00
2022-10-16T21:59:22.003Z,100.00
2022-10-16T22:01:53.843Z,100.00
2022-10-16T22:04:22.468Z,100.00
2022-10-16T22:06:52.533Z,100.00
2022-10-16T22:09:21.034Z,100.00
2022-10-16T22:11:50.897Z,100.00
2022-10-16T22:14:21.687Z,100.00
2022-10-16T22:16:51.759Z,100.00
2022-10-16T22:19:22.855Z,100.00
2022-10-16T22:21:57.263Z,100.00
2022-10-16T22:24:26.020Z,100.00
2022-10-16T22:26:54.816Z,100.00
2022-10-16T22:29:23.691Z,100.00
2022-10-16T22:31:53.745Z,100.00
2022-10-16T22:34:22.254Z,100.00
2022-10-16T22:36:52.429Z,100.00
2022-10-16T22:39:20.969Z,100.00
2022-10-16T22:41:49.773Z,100.00
2022-10-16T22:44:18.337Z,100.00
2022-10-16T22:46:47.079Z,100.00
2022-10-16T22:49:17.478Z,100.00
2022-10-16T22:51:46.258Z,100.00
2022-10-16T22:54:16.528Z,100.00
2022-10-16T22:56:45.319Z,100.00
2022-10-16T22:59:13.882Z,100.00
2022-10-16T23:01:44.069Z,100.00
2022-10-16T23:04:12.592Z,100.00
2022-10-16T23:06:41.296Z,100.00
2022-10-16T23:09:11.509Z,100.00
2022-10-16T23:11:41.595Z,100.00
2022-10-16T23:14:10.093Z,100.00
2022-10-16T23:16:38.806Z,100.00
2022-10-16T23:19:07.317Z,100.00
2022-10-16T23:21:36.002Z,100.00
2022-10-16T23:24:04.841Z,100.00
2022-10-16T23:26:36.422Z,100.00
2022-10-16T23:29:06.586Z,100.00
2022-10-16T23:31:35.331Z,100.00
2022-10-16T23:34:03.962Z,100.00
2022-10-16T23:36:32.698Z,100.00
2022-10-16T23:39:01.234Z,100.00
2022-10-16T23:41:29.974Z,100.00
2022-10-16T23:43:58.487Z,100.00
2022-10-16T23:46:28.729Z,100.00
2022-10-16T23:48:57.667Z,100.00
2022-10-16T23:51:26.999Z,100.00
2022-10-16T23:53:55.881Z,100.00
2022-10-16T23:56:24.593Z,100.00
2022-10-16T23:58:53.146Z,100.00
